Time;durP1;ratioP1;P1;durP2;ratioP2;P2;SDS_P1;SDS_P2;PMS_P1;PMS_P2;Temp;Humidity;BMP_temperature;BMP_pressure;BME280_temperature;BME280_humidity;BME280_pressure;Samples;Min_cycle;Max_cycle;Signal;HPM_P1;HPM_P2
2023/04/15 00:00:29;;;;;;;0.50;0.50;;;4.50;99.90;;;;;;5052083;28;20027;-65
2023/04/15 00:02:55;;;;;;;1.00;0.60;;;4.50;99.90;;;;;;5051686;28;20028;-64
2023/04/15 00:05:21;;;;;;;1.20;0.65;;;4.50;99.90;;;;;;5051866;28;20040;-65
2023/04/15 00:07:46;;;;;;;0.57;0.57;;;4.50;99.90;;;;;;5051573;28;20427;-66
2023/04/15 00:10:13;;;;;;;0.68;0.68;;;4.50;99.90;;;;;;5055143;28;20025;-64
2023/04/15 00:12:39;;;;;;;0.45;0.40;;;4.50;99.90;;;;;;5055297;28;20543;-65
2023/04/15 00:15:07;;;;;;;0.50;0.40;;;4.50;99.90;;;;;;5054974;28;20040;-65
2023/04/15 00:17:33;;;;;;;1.40;0.70;;;4.50;99.90;;;;;;5055399;28;20374;-65
2023/04/15 00:19:58;;;;;;;0.80;0.60;;;4.50;99.90;;;;;;5054940;28;20070;-66
2023/04/15 00:22:25;;;;;;;0.80;0.60;;;4.50;99.90;;;;;;5055180;28;20484;-65
2023/04/15 00:24:52;;;;;;;2.20;0.47;;;4.50;99.90;;;;;;5054822;28;20044;-65
2023/04/15 00:27:18;;;;;;;1.15;0.40;;;4.50;99.90;;;;;;5055372;28;20035;-65
2023/04/15 00:29:44;;;;;;;0.63;0.50;;;4.50;99.90;;;;;;5055157;28;20047;-65
2023/04/15 00:32:09;;;;;;;0.63;0.50;;;4.50;99.90;;;;;;5054690;28;20462;-65
2023/04/15 00:34:35;;;;;;;0.98;0.80;;;4.50;99.90;;;;;;5054811;28;20404;-65
2023/04/15 00:37:01;;;;;;;0.85;0.65;;;4.60;99.90;;;;;;5054331;28;20444;-65
2023/04/15 00:39:27;;;;;;;0.50;0.47;;;4.50;99.90;;;;;;5055199;28;20032;-65
2023/04/15 00:41:53;;;;;;;0.82;0.57;;;4.50;99.90;;;;;;5043344;28;20026;-66
2023/04/15 00:44:19;;;;;;;0.85;0.52;;;4.60;99.90;;;;;;5035028;28;20104;-65
2023/04/15 00:46:46;;;;;;;0.40;0.40;;;4.60;99.90;;;;;;5034876;28;20429;-66
2023/04/15 00:49:12;;;;;;;0.75;0.57;;;4.50;99.90;;;;;;5034423;28;20033;-65
2023/04/15 00:51:37;;;;;;;0.40;0.40;;;4.60;99.90;;;;;;5034865;28;20031;-65
2023/04/15 00:54:04;;;;;;;0.50;0.40;;;4.50;99.90;;;;;;5033197;28;20025;-66
2023/04/15 00:56:33;;;;;;;0.60;0.40;;;4.60;99.90;;;;;;5034687;28;20484;-66
2023/04/15 00:58:59;;;;;;;0.73;0.60;;;4.60;99.90;;;;;;5034328;28;20038;-66
2023/04/15 01:01:25;;;;;;;0.30;0.30;;;4.60;99.90;;;;;;5034969;28;20033;-66
2023/04/15 01:03:51;;;;;;;0.50;0.50;;;4.60;99.90;;;;;;5034178;28;20469;-66
2023/04/15 01:06:17;;;;;;;0.60;0.60;;;4.60;99.90;;;;;;5034464;28;20038;-66
2023/04/15 01:08:46;;;;;;;0.82;0.43;;;4.60;99.90;;;;;;5034454;28;20040;-66
2023/04/15 01:11:12;;;;;;;0.47;0.40;;;4.60;99.90;;;;;;5033744;28;20025;-66
2023/04/15 01:13:38;;;;;;;1.17;0.60;;;4.60;99.90;;;;;;5034082;28;20025;-66
2023/04/15 01:16:05;;;;;;;1.50;0.50;;;4.60;99.90;;;;;;5033994;28;20042;-66
2023/04/15 01:18:31;;;;;;;1.20;0.60;;;4.60;99.90;;;;;;5033050;28;20029;-66
2023/04/15 01:20:57;;;;;;;0.52;0.45;;;4.60;99.90;;;;;;5033816;28;20450;-66
2023/04/15 01:23:22;;;;;;;1.02;0.50;;;4.70;99.90;;;;;;5034120;28;20033;-65
2023/04/15 01:25:50;;;;;;;0.65;0.60;;;4.70;99.90;;;;;;5034157;28;20029;-66
2023/04/15 01:28:16;;;;;;;0.40;0.40;;;4.70;99.90;;;;;;5033990;28;20041;-65
2023/04/15 01:30:42;;;;;;;0.77;0.50;;;4.70;99.90;;;;;;5033822;28;20028;-65
2023/04/15 01:33:08;;;;;;;2.15;0.60;;;4.70;99.90;;;;;;5033487;28;20121;-67
2023/04/15 01:35:33;;;;;;;1.60;0.60;;;4.70;99.90;;;;;;5033846;28;20061;-66
2023/04/15 01:38:06;;;;;;;1.52;0.45;;;4.70;99.90;;;;;;5033474;28;20025;-65
2023/04/15 01:40:33;;;;;;;0.55;0.40;;;4.70;99.90;;;;;;5033881;28;20417;-65
2023/04/15 01:42:59;;;;;;;1.13;0.45;;;4.70;99.90;;;;;;5033446;28;20084;-66
2023/04/15 01:45:25;;;;;;;0.50;0.40;;;4.70;99.90;;;;;;5033762;28;20496;-66
2023/04/15 01:47:50;;;;;;;0.80;0.40;;;4.70;99.90;;;;;;5039156;28;20025;-66
2023/04/15 01:50:16;;;;;;;0.57;0.40;;;4.70;99.90;;;;;;5053187;28;20032;-66
2023/04/15 01:52:42;;;;;;;0.30;0.30;;;4.70;99.90;;;;;;5053121;28;20036;-66
2023/04/15 01:55:08;;;;;;;0.40;0.30;;;4.70;99.90;;;;;;5052947;28;20397;-66
2023/04/15 01:57:34;;;;;;;0.90;0.40;;;4.70;99.90;;;;;;5053345;28;20033;-66
2023/04/15 02:00:00;;;;;;;0.52;0.45;;;4.70;99.90;;;;;;5052872;28;20389;-66
2023/04/15 02:02:25;;;;;;;0.75;0.50;;;4.70;99.90;;;;;;5053449;28;20100;-66
2023/04/15 02:04:52;;;;;;;1.08;0.80;;;4.70;99.90;;;;;;5052919;28;20044;-66
2023/04/15 02:07:18;;;;;;;0.50;0.40;;;4.80;99.90;;;;;;5052824;28;20040;-66
2023/04/15 02:09:44;;;;;;;1.25;0.60;;;4.80;99.90;;;;;;5053163;28;20078;-66
2023/04/15 02:12:11;;;;;;;0.75;0.55;;;4.80;99.90;;;;;;5052737;28;20029;-66
2023/04/15 02:14:36;;;;;;;0.70;0.60;;;4.80;99.90;;;;;;5053112;28;20128;-66
2023/04/15 02:17:06;;;;;;;0.68;0.63;;;4.80;99.90;;;;;;5051448;28;20465;-66
2023/04/15 02:19:32;;;;;;;1.08;0.98;;;4.80;99.90;;;;;;5053007;28;20024;-66
2023/04/15 02:22:00;;;;;;;1.35;0.98;;;4.80;99.90;;;;;;5052528;28;20021;-67
2023/04/15 02:24:26;;;;;;;1.23;0.77;;;4.80;99.90;;;;;;5052967;28;20037;-66
2023/04/15 02:26:52;;;;;;;0.88;0.88;;;4.80;99.90;;;;;;5052930;28;20037;-66
2023/04/15 02:29:17;;;;;;;0.90;0.80;;;4.80;99.90;;;;;;5052424;28;20499;-66
2023/04/15 02:31:44;;;;;;;0.80;0.80;;;4.80;99.90;;;;;;5052084;28;20044;-67
2023/04/15 02:34:10;;;;;;;2.05;0.90;;;4.80;99.90;;;;;;5047105;28;20021;-66
2023/04/15 02:36:36;;;;;;;1.92;1.10;;;4.80;99.90;;;;;;5032640;28;20037;-65
2023/04/15 02:39:02;;;;;;;1.30;1.00;;;4.80;99.90;;;;;;5032499;28;20032;-66
2023/04/15 02:41:29;;;;;;;1.58;1.00;;;4.80;99.90;;;;;;5032764;28;20064;-66
2023/04/15 02:43:55;;;;;;;1.10;0.90;;;4.90;99.90;;;;;;5032253;28;20054;-66
2023/04/15 02:46:21;;;;;;;2.10;1.23;;;4.90;99.90;;;;;;5032221;28;20041;-66
2023/04/15 02:48:48;;;;;;;1.33;1.00;;;4.90;99.90;;;;;;5032399;28;20493;-66
2023/04/15 02:51:15;;;;;;;1.20;1.10;;;4.80;99.90;;;;;;5032344;28;20172;-66
2023/04/15 02:53:41;;;;;;;1.95;1.30;;;4.80;99.90;;;;;;5032682;28;20025;-66
2023/04/15 02:56:07;;;;;;;1.30;1.20;;;4.90;99.90;;;;;;5032288;28;20030;-66
2023/04/15 02:58:34;;;;;;;2.50;1.20;;;4.90;99.90;;;;;;5032788;28;20029;-66
2023/04/15 03:01:00;;;;;;;1.40;1.30;;;4.90;99.90;;;;;;5032185;28;20034;-67
2023/04/15 03:03:27;;;;;;;1.73;0.73;;;4.90;99.90;;;;;;5032834;28;20025;-66
2023/04/15 03:05:53;;;;;;;0.70;0.70;;;4.90;99.90;;;;;;5032538;28;20053;-66
2023/04/15 03:08:20;;;;;;;1.08;0.82;;;4.90;99.90;;;;;;5032042;28;20279;-66
2023/04/15 03:10:46;;;;;;;2.25;0.80;;;4.90;99.90;;;;;;5032562;28;20030;-66
2023/04/15 03:13:12;;;;;;;1.08;0.80;;;4.90;99.90;;;;;;5032153;28;20376;-66
2023/04/15 03:15:37;;;;;;;0.80;0.70;;;4.90;99.90;;;;;;5032451;28;20036;-66
2023/04/15 03:18:03;;;;;;;1.08;0.80;;;4.90;99.90;;;;;;5031762;28;20033;-66
2023/04/15 03:20:29;;;;;;;0.90;0.70;;;5.00;99.90;;;;;;5032156;28;20080;-66
2023/04/15 03:22:54;;;;;;;1.48;0.70;;;5.00;99.90;;;;;;5032681;28;20026;-66
2023/04/15 03:25:20;;;;;;;1.02;0.77;;;5.00;99.90;;;;;;5032038;28;20248;-66
2023/04/15 03:27:46;;;;;;;3.53;1.08;;;5.00;99.90;;;;;;5032473;28;20033;-66
2023/04/15 03:30:12;;;;;;;0.82;0.80;;;5.00;99.90;;;;;;5032105;28;20537;-66
2023/04/15 03:32:38;;;;;;;1.15;1.05;;;5.00;99.90;;;;;;5032310;28;20030;-66
2023/04/15 03:35:05;;;;;;;1.02;0.93;;;5.00;99.90;;;;;;5031915;28;20034;-67
2023/04/15 03:37:31;;;;;;;1.27;1.00;;;5.00;99.90;;;;;;5032270;28;20026;-66
2023/04/15 03:39:56;;;;;;;1.30;1.20;;;5.00;99.90;;;;;;5032299;28;20096;-66
2023/04/15 03:42:22;;;;;;;1.20;1.10;;;5.00;99.90;;;;;;5031992;28;20029;-66
2023/04/15 03:44:48;;;;;;;1.50;1.40;;;5.00;99.90;;;;;;5047748;28;20388;-67
2023/04/15 03:47:14;;;;;;;1.45;1.20;;;5.00;99.90;;;;;;5055775;28;20111;-66
2023/04/15 03:49:40;;;;;;;1.13;1.05;;;5.00;99.90;;;;;;5055943;28;20067;-66
2023/04/15 03:52:05;;;;;;;2.30;1.40;;;5.00;99.90;;;;;;5056446;28;20060;-66
2023/04/15 03:54:31;;;;;;;3.08;1.50;;;5.00;99.90;;;;;;5060702;28;20079;-66
2023/04/15 03:56:57;;;;;;;2.67;1.73;;;5.10;99.90;;;;;;5058826;28;20064;-66
2023/04/15 03:59:22;;;;;;;2.15;1.95;;;5.10;99.90;;;;;;5057333;28;20281;-66
2023/04/15 04:01:48;;;;;;;1.80;1.70;;;5.00;99.90;;;;;;5059254;28;20025;-66
2023/04/15 04:04:14;;;;;;;2.63;2.10;;;5.10;99.90;;;;;;5057530;28;20021;-66
2023/04/15 04:06:40;;;;;;;3.72;2.20;;;5.10;99.90;;;;;;5056300;28;20029;-66
2023/04/15 04:09:06;;;;;;;2.55;2.35;;;5.10;99.90;;;;;;5055853;28;20139;-67
2023/04/15 04:11:31;;;;;;;2.47;2.28;;;5.10;99.90;;;;;;5055686;28;20481;-66
2023/04/15 04:13:57;;;;;;;2.78;2.58;;;5.10;99.90;;;;;;5055715;28;20029;-66
2023/04/15 04:16:23;;;;;;;2.72;2.45;;;5.10;99.90;;;;;;5054946;28;20040;-66
2023/04/15 04:18:49;;;;;;;5.07;2.80;;;5.10;99.90;;;;;;5055648;28;20029;-66
2023/04/15 04:21:15;;;;;;;3.20;2.90;;;5.10;99.90;;;;;;5055232;28;20079;-66
2023/04/15 04:23:41;;;;;;;3.50;3.08;;;5.10;99.90;;;;;;5055101;28;20557;-66
2023/04/15 04:26:06;;;;;;;3.67;3.17;;;5.10;99.90;;;;;;5054825;28;20112;-66
2023/04/15 04:28:32;;;;;;;3.28;2.97;;;5.10;99.90;;;;;;5055693;28;20064;-66
2023/04/15 04:30:58;;;;;;;3.60;2.92;;;5.20;99.90;;;;;;5041093;28;20466;-67
2023/04/15 04:33:23;;;;;;;3.15;2.85;;;5.20;99.90;;;;;;5035189;28;20045;-66
2023/04/15 04:35:49;;;;;;;4.07;3.70;;;5.20;99.90;;;;;;5035366;28;20025;-66
2023/04/15 04:38:15;;;;;;;4.32;3.63;;;5.20;99.90;;;;;;5034904;28;20025;-66
2023/04/15 04:40:40;;;;;;;6.13;4.00;;;5.20;99.90;;;;;;5035359;28;20540;-66
2023/04/15 04:43:06;;;;;;;4.78;3.53;;;5.20;99.90;;;;;;5034761;28;20022;-71
2023/04/15 04:45:32;;;;;;;4.65;4.03;;;5.20;99.90;;;;;;5034928;28;20029;-66
2023/04/15 04:47:57;;;;;;;5.18;4.53;;;5.20;99.90;;;;;;5035166;28;20067;-66
2023/04/15 04:50:23;;;;;;;4.28;3.45;;;5.20;99.90;;;;;;5034530;28;20022;-66
2023/04/15 04:52:49;;;;;;;4.13;3.72;;;5.30;99.90;;;;;;5034836;28;20049;-66
2023/04/15 04:55:15;;;;;;;3.35;3.05;;;5.20;99.90;;;;;;5033968;28;20097;-66
2023/04/15 04:57:41;;;;;;;3.42;3.13;;;5.30;99.90;;;;;;5034741;28;20128;-65
2023/04/15 05:00:07;;;;;;;3.70;3.40;;;5.30;99.90;;;;;;5034713;28;20049;-65
2023/04/15 05:02:33;;;;;;;4.50;3.45;;;5.30;99.90;;;;;;5034334;28;20474;-65
2023/04/15 05:05:00;;;;;;;4.00;3.60;;;5.30;99.90;;;;;;5034467;28;20026;-65
2023/04/15 05:07:26;;;;;;;4.93;3.83;;;5.30;99.90;;;;;;5034029;28;20029;-65
2023/04/15 05:09:52;;;;;;;7.18;4.07;;;5.30;99.90;;;;;;5034335;28;20485;-66
2023/04/15 05:12:17;;;;;;;4.22;3.80;;;5.30;99.90;;;;;;5032733;28;20030;-66
2023/04/15 05:14:49;;;;;;;3.80;3.30;;;5.30;99.90;;;;;;5034426;28;20029;-66
2023/04/15 05:17:15;;;;;;;3.80;3.20;;;5.40;99.90;;;;;;5033640;28;20125;-66
2023/04/15 05:19:40;;;;;;;3.95;3.05;;;5.40;99.90;;;;;;5032634;28;20476;-66
2023/04/15 05:22:07;;;;;;;6.25;3.17;;;5.40;99.90;;;;;;5034196;28;20036;-65
2023/04/15 05:24:32;;;;;;;3.55;2.80;;;5.40;99.90;;;;;;5033646;28;20026;-65
2023/04/15 05:26:58;;;;;;;3.30;2.97;;;5.40;99.90;;;;;;5033864;28;20043;-65
2023/04/15 05:29:23;;;;;;;4.28;2.70;;;5.50;99.90;;;;;;5033737;28;20060;-65
2023/04/15 05:31:49;;;;;;;2.80;2.50;;;5.50;99.90;;;;;;5033961;28;20529;-66
2023/04/15 05:34:16;;;;;;;4.07;2.95;;;5.60;99.90;;;;;;5033539;28;20029;-66
2023/04/15 05:36:41;;;;;;;2.75;2.22;;;5.60;99.90;;;;;;5050499;28;20041;-66
2023/04/15 05:39:07;;;;;;;3.47;2.63;;;5.60;99.90;;;;;;5054043;28;20029;-65
2023/04/15 05:41:33;;;;;;;2.75;2.40;;;5.60;99.90;;;;;;5053456;28;20029;-66
2023/04/15 05:43:59;;;;;;;3.60;2.53;;;5.70;99.90;;;;;;5053535;28;20052;-66
2023/04/15 05:46:25;;;;;;;5.75;2.95;;;5.70;99.90;;;;;;5053207;28;20416;-65
2023/04/15 05:48:50;;;;;;;3.42;2.40;;;5.70;99.90;;;;;;5053218;28;20037;-65
2023/04/15 05:51:16;;;;;;;3.10;2.35;;;5.70;99.90;;;;;;5053302;28;20072;-65
2023/04/15 05:53:42;;;;;;;2.92;2.17;;;5.80;99.90;;;;;;5051969;28;20025;-66
2023/04/15 05:56:07;;;;;;;3.45;2.33;;;5.80;99.90;;;;;;5053512;28;20072;-66
2023/04/15 05:58:33;;;;;;;3.25;2.30;;;5.80;99.90;;;;;;5053071;28;20036;-65
2023/04/15 06:00:59;;;;;;;2.63;1.98;;;5.90;99.90;;;;;;5053086;28;20040;-65
2023/04/15 06:03:25;;;;;;;2.80;2.47;;;5.90;99.90;;;;;;5052509;28;20052;-65
2023/04/15 06:05:50;;;;;;;2.40;2.20;;;5.90;99.90;;;;;;5052202;28;20029;-65
2023/04/15 06:08:16;;;;;;;2.50;2.03;;;6.00;99.90;;;;;;5052674;28;20029;-66
2023/04/15 06:10:42;;;;;;;2.20;2.00;;;6.00;99.90;;;;;;5052942;28;20025;-66
2023/04/15 06:13:07;;;;;;;2.30;2.10;;;6.00;99.90;;;;;;5053166;28;20060;-65
2023/04/15 06:15:33;;;;;;;2.00;1.80;;;6.00;99.90;;;;;;5052519;28;20666;-65
2023/04/15 06:17:59;;;;;;;2.30;2.10;;;6.10;99.90;;;;;;5053000;28;20374;-64
2023/04/15 06:20:25;;;;;;;2.28;1.98;;;6.10;99.90;;;;;;5052493;28;20078;-64
2023/04/15 06:22:51;;;;;;;2.35;1.95;;;6.10;99.90;;;;;;5052994;28;20071;-65
2023/04/15 06:25:17;;;;;;;2.60;2.20;;;6.20;99.90;;;;;;5052592;28;20506;-66
2023/04/15 06:27:42;;;;;;;2.38;1.65;;;6.20;99.90;;;;;;5053270;28;20033;-64
2023/04/15 06:30:08;;;;;;;2.53;2.10;;;6.20;99.90;;;;;;5052918;28;20025;-65
2023/04/15 06:32:34;;;;;;;2.10;1.90;;;6.20;99.90;;;;;;5052439;28;20074;-65
2023/04/15 06:35:00;;;;;;;2.28;1.80;;;6.30;99.90;;;;;;5052899;28;20025;-65
2023/04/15 06:37:25;;;;;;;1.80;1.58;;;6.30;99.90;;;;;;5051705;28;20500;-65
2023/04/15 06:39:51;;;;;;;3.55;1.75;;;6.30;99.90;;;;;;5052606;28;20035;-62
2023/04/15 06:42:17;;;;;;;1.55;1.45;;;6.40;99.90;;;;;;5052225;28;20365;-70
2023/04/15 06:44:42;;;;;;;1.85;1.38;;;6.40;99.90;;;;;;5052435;28;20041;-62
2023/04/15 06:47:08;;;;;;;2.10;1.50;;;6.40;99.90;;;;;;5052351;28;20452;-63
2023/04/15 06:49:34;;;;;;;1.70;1.60;;;6.50;99.90;;;;;;5052309;28;20025;-63
2023/04/15 06:52:00;;;;;;;1.60;1.42;;;6.50;99.90;;;;;;5051414;28;20432;-63
2023/04/15 06:54:26;;;;;;;1.92;1.58;;;6.50;99.90;;;;;;5052382;28;20033;-63
2023/04/15 06:56:52;;;;;;;2.65;1.60;;;6.60;99.90;;;;;;5052977;28;20124;-62
2023/04/15 06:59:17;;;;;;;2.35;1.60;;;6.50;99.90;;;;;;5052193;28;20033;-66
2023/04/15 07:01:43;;;;;;;2.38;1.75;;;6.60;99.90;;;;;;5052474;28;20021;-62
2023/04/15 07:04:09;;;;;;;2.75;2.03;;;6.60;99.90;;;;;;5052598;28;20107;-62
2023/04/15 07:06:35;;;;;;;2.40;2.15;;;6.60;99.90;;;;;;5051640;28;20036;-64
2023/04/15 07:09:03;;;;;;;1.90;1.70;;;6.60;99.90;;;;;;5052280;28;20037;-62
2023/04/15 07:11:29;;;;;;;3.10;2.15;;;6.70;99.90;;;;;;5051334;28;20036;-63
2023/04/15 07:13:56;;;;;;;1.30;1.20;;;6.70;99.90;;;;;;5051598;28;20374;-63
2023/04/15 07:16:22;;;;;;;2.38;1.08;;;6.80;99.90;;;;;;5050971;28;20422;-63
2023/04/15 07:18:48;;;;;;;1.38;1.27;;;6.80;99.90;;;;;;5054444;28;20031;-62
2023/04/15 07:21:13;;;;;;;1.65;1.20;;;6.80;99.90;;;;;;5055938;28;20406;-63
2023/04/15 07:23:39;;;;;;;1.95;1.10;;;6.80;99.90;;;;;;5056069;28;20045;-67
2023/04/15 07:26:05;;;;;;;1.63;1.20;;;6.80;99.90;;;;;;5056379;28;20397;-67
2023/04/15 07:28:30;;;;;;;1.30;1.20;;;6.90;99.90;;;;;;5055650;28;20025;-67
2023/04/15 07:30:56;;;;;;;1.17;1.05;;;6.90;99.90;;;;;;5056272;28;20029;-67
2023/04/15 07:33:22;;;;;;;1.20;1.10;;;6.90;99.90;;;;;;5055155;28;20025;-67
2023/04/15 07:35:48;;;;;;;1.20;1.10;;;6.90;99.90;;;;;;5056417;28;20033;-65
2023/04/15 07:38:13;;;;;;;2.05;1.58;;;6.90;99.90;;;;;;5056140;28;20461;-68
2023/04/15 07:40:39;;;;;;;1.42;1.00;;;6.90;99.90;;;;;;5056017;28;20037;-68
2023/04/15 07:43:05;;;;;;;3.00;1.50;;;7.00;99.90;;;;;;5056295;28;20021;-68
2023/04/15 07:45:31;;;;;;;1.88;1.30;;;7.00;99.90;;;;;;5055014;28;20045;-69
2023/04/15 07:47:57;;;;;;;1.33;1.10;;;7.00;99.90;;;;;;5055914;28;20079;-67
2023/04/15 07:50:23;;;;;;;1.60;1.40;;;7.00;99.90;;;;;;5055323;28;20127;-67
2023/04/15 07:52:51;;;;;;;1.60;1.50;;;7.10;99.90;;;;;;5055881;28;20032;-67
2023/04/15 07:55:20;;;;;;;2.20;1.60;;;7.30;99.90;;;;;;5055608;28;20020;-67
2023/04/15 07:57:46;;;;;;;1.05;0.98;;;7.50;99.90;;;;;;5054825;28;20033;-67
2023/04/15 08:00:12;;;;;;;1.17;1.02;;;7.60;99.90;;;;;;5055698;28;20025;-67
2023/04/15 08:02:38;;;;;;;1.45;1.27;;;7.70;99.90;;;;;;5055333;28;20032;-66
2023/04/15 08:05:04;;;;;;;2.95;1.50;;;7.70;99.90;;;;;;5055543;28;20051;-68
2023/04/15 08:07:30;;;;;;;2.00;1.33;;;7.70;99.90;;;;;;5055312;28;20029;-69
2023/04/15 08:09:56;;;;;;;1.40;1.30;;;7.80;99.90;;;;;;5055506;28;20033;-69
2023/04/15 08:12:22;;;;;;;2.17;1.40;;;7.80;99.90;;;;;;5055239;28;20119;-68
2023/04/15 08:14:52;;;;;;;1.65;1.30;;;8.00;99.90;;;;;;5054106;28;20040;-68
2023/04/15 08:17:17;;;;;;;1.73;1.05;;;8.00;99.90;;;;;;5055332;28;20031;-68
2023/04/15 08:19:43;;;;;;;1.23;1.00;;;8.10;99.90;;;;;;5055279;28;20674;-68
2023/04/15 08:22:11;;;;;;;1.98;1.30;;;8.00;99.90;;;;;;5055486;28;20056;-67
2023/04/15 08:24:36;;;;;;;1.98;1.27;;;8.10;99.90;;;;;;5054746;28;20067;-67
2023/04/15 08:27:03;;;;;;;2.97;1.23;;;8.10;99.90;;;;;;5055210;28;20044;-68
2023/04/15 08:29:29;;;;;;;1.30;1.20;;;8.10;99.90;;;;;;5054040;28;20376;-68
2023/04/15 08:31:54;;;;;;;2.10;1.20;;;8.10;99.90;;;;;;5055225;28;20027;-68
2023/04/15 08:34:20;;;;;;;2.13;1.50;;;8.20;99.90;;;;;;5055095;28;20025;-68
2023/04/15 08:36:46;;;;;;;1.50;1.38;;;8.10;99.90;;;;;;5054653;28;20025;-68
2023/04/15 08:39:11;;;;;;;1.77;1.20;;;8.20;99.90;;;;;;5053226;28;20028;-67
2023/04/15 08:41:49;;;;;;;1.75;1.27;;;8.20;99.90;;;;;;5054883;28;20025;-67
2023/04/15 08:44:15;;;;;;;1.45;1.20;;;8.10;99.90;;;;;;5055138;28;20055;-67
2023/04/15 08:46:41;;;;;;;2.47;1.00;;;8.10;99.90;;;;;;5054552;28;20115;-68
2023/04/15 08:49:13;;;;;;;1.80;1.48;;;8.10;99.90;;;;;;5054777;28;20039;-68
2023/04/15 08:51:40;;;;;;;2.38;1.70;;;8.10;99.90;;;;;;5054286;28;20025;-68
2023/04/15 08:54:07;;;;;;;2.70;1.70;;;8.10;99.90;;;;;;5054567;28;20192;-68
2023/04/15 08:56:34;;;;;;;2.10;1.55;;;8.10;99.90;;;;;;5054302;28;20029;-68
2023/04/15 08:59:00;;;;;;;1.60;1.50;;;8.10;99.90;;;;;;5054635;28;20440;-68
2023/04/15 09:01:26;;;;;;;1.65;1.40;;;8.10;99.90;;;;;;5054637;28;20087;-68
2023/04/15 09:03:53;;;;;;;1.40;1.30;;;8.20;99.90;;;;;;5054569;28;20029;-68
2023/04/15 09:06:20;;;;;;;1.60;1.50;;;8.10;99.90;;;;;;5054464;28;20025;-68
2023/04/15 09:08:46;;;;;;;2.20;1.23;;;8.10;99.90;;;;;;5054206;28;20033;-68
2023/04/15 09:11:12;;;;;;;2.10;1.77;;;8.10;99.90;;;;;;5054586;28;20017;-68
2023/04/15 09:13:38;;;;;;;1.58;1.27;;;8.10;99.90;;;;;;5053792;28;20034;-67
2023/04/15 09:16:05;;;;;;;2.53;1.38;;;8.10;99.90;;;;;;5054193;28;20032;-67
2023/04/15 09:18:32;;;;;;;2.83;1.67;;;8.10;99.90;;;;;;5053572;28;20025;-67
2023/04/15 09:21:10;;;;;;;2.05;1.67;;;8.20;99.90;;;;;;5053209;28;20166;-67
2023/04/15 09:23:37;;;;;;;1.50;1.40;;;8.10;99.90;;;;;;5053567;28;20589;-67
2023/04/15 09:26:03;;;;;;;3.45;1.83;;;8.10;99.90;;;;;;5054106;28;20036;-67
2023/04/15 09:28:29;;;;;;;2.67;1.60;;;8.20;99.90;;;;;;5053834;28;20478;-69
2023/04/15 09:30:59;;;;;;;1.95;1.70;;;8.20;99.90;;;;;;5054039;28;20021;-67
2023/04/15 09:33:26;;;;;;;2.35;1.70;;;8.20;99.90;;;;;;5054068;28;20060;-67
2023/04/15 09:36:00;;;;;;;2.22;1.50;;;8.20;99.90;;;;;;5053320;28;20044;-68
2023/04/15 09:38:26;;;;;;;2.15;1.90;;;8.20;99.90;;;;;;5034079;28;20131;-67
2023/04/15 09:40:51;;;;;;;3.00;2.13;;;8.20;99.90;;;;;;5033513;28;20060;-67
2023/04/15 09:43:17;;;;;;;2.28;2.00;;;8.20;99.90;;;;;;5033725;28;20032;-67
2023/04/15 09:45:51;;;;;;;1.92;1.63;;;8.20;99.90;;;;;;5033470;28;20111;-68
2023/04/15 09:48:24;;;;;;;1.90;1.65;;;8.20;99.90;;;;;;5033688;28;20496;-67
2023/04/15 09:50:52;;;;;;;2.28;1.35;;;8.20;99.90;;;;;;5043526;28;20367;-68
2023/04/15 09:53:23;;;;;;;1.38;1.27;;;8.20;99.90;;;;;;5053497;28;20075;-66
2023/04/15 09:55:57;;;;;;;3.50;1.50;;;8.20;99.90;;;;;;5053132;28;20469;-67
2023/04/15 09:58:32;;;;;;;3.05;1.00;;;8.20;99.90;;;;;;5052513;28;20060;-67
2023/04/15 10:01:00;;;;;;;2.13;1.27;;;8.20;99.90;;;;;;5053479;28;20355;-67
2023/04/15 10:03:30;;;;;;;2.90;1.23;;;8.20;99.90;;;;;;5053361;28;20030;-67
2023/04/15 10:05:58;;;;;;;1.98;1.23;;;8.20;99.90;;;;;;5052958;28;20044;-67
2023/04/15 10:08:26;;;;;;;2.10;1.25;;;8.20;99.90;;;;;;5053050;28;20489;-67
2023/04/15 10:10:52;;;;;;;1.92;1.48;;;8.20;99.90;;;;;;5053257;28;20342;-67
2023/04/15 10:13:23;;;;;;;1.83;1.30;;;8.20;99.90;;;;;;5053213;28;20110;-67
2023/04/15 10:16:02;;;;;;;1.83;0.90;;;8.20;99.90;;;;;;5052796;28;20523;-67
2023/04/15 10:18:31;;;;;;;1.30;0.88;;;8.20;99.90;;;;;;5053214;28;20025;-67
2023/04/15 10:20:59;;;;;;;1.02;0.93;;;8.20;99.90;;;;;;5052792;28;20028;-67
2023/04/15 10:23:26;;;;;;;1.60;1.20;;;8.20;99.90;;;;;;5053044;28;20025;-67
2023/04/15 10:25:55;;;;;;;1.65;1.30;;;8.20;99.90;;;;;;5052599;28;20036;-67
2023/04/15 10:28:21;;;;;;;1.80;1.15;;;8.20;99.90;;;;;;5053248;28;20132;-67
2023/04/15 10:30:48;;;;;;;2.00;1.30;;;8.20;99.90;;;;;;5052294;28;20029;-68
2023/04/15 10:33:18;;;;;;;2.03;1.33;;;8.20;99.90;;;;;;5052360;28;20029;-66
2023/04/15 10:35:46;;;;;;;1.50;1.08;;;8.20;99.90;;;;;;5052452;28;20163;-68
2023/04/15 10:38:33;;;;;;;2.72;1.60;;;8.30;99.90;;;;;;5052802;28;20436;-67
2023/04/15 10:41:26;;;;;;;2.05;1.52;;;8.20;99.90;;;;;;5052568;28;20025;-68
2023/04/15 10:43:54;;;;;;;1.27;1.00;;;8.20;99.90;;;;;;5051291;28;20045;-68
2023/04/15 10:46:43;;;;;;;3.03;1.63;;;8.10;99.90;;;;;;5052717;28;20033;-67
2023/04/15 10:49:16;;;;;;;5.80;4.05;;;8.10;99.90;;;;;;5052653;28;20554;-68
2023/04/15 10:51:50;;;;;;;3.40;1.83;;;8.20;99.90;;;;;;5052102;28;20029;-67
2023/04/15 10:54:25;;;;;;;2.08;1.40;;;8.20;99.90;;;;;;5052664;28;20048;-67
2023/04/15 10:57:05;;;;;;;3.25;1.52;;;8.20;99.90;;;;;;5051928;28;20032;-67
2023/04/15 10:59:31;;;;;;;10.87;5.80;;;8.20;99.90;;;;;;5052729;28;20025;-67
2023/04/15 11:02:01;;;;;;;2.65;1.27;;;8.30;99.90;;;;;;5052226;28;20258;-67
2023/04/15 11:05:06;;;;;;;1.88;1.05;;;8.30;99.90;;;;;;5052479;28;20047;-67
2023/04/15 11:07:47;;;;;;;1.88;1.65;;;8.30;99.90;;;;;;5030200;28;20061;-67
2023/04/15 11:10:12;;;;;;;;;;;8.40;99.90;;;;;;5030773;28;20029;-67
2023/04/15 11:12:39;;;;;;;2.05;1.30;;;8.40;99.90;;;;;;5029828;28;20055;-67
2023/04/15 11:15:30;;;;;;;1.85;1.30;;;8.50;99.90;;;;;;5030203;28;20095;-67
2023/04/15 11:18:07;;;;;;;2.00;1.27;;;8.50;99.90;;;;;;5029751;28;20025;-67
2023/04/15 11:20:33;;;;;;;3.53;1.50;;;8.50;99.90;;;;;;5030321;28;20363;-67
2023/04/15 11:22:59;;;;;;;1.77;1.38;;;8.60;99.90;;;;;;5029715;28;20148;-68
2023/04/15 11:25:26;;;;;;;3.33;2.00;;;8.50;99.90;;;;;;5030024;28;20041;-67
2023/04/15 11:27:53;;;;;;;4.18;2.63;;;8.60;99.90;;;;;;5029741;28;20036;-68
2023/04/15 11:30:21;;;;;;;3.70;2.30;;;8.60;99.90;;;;;;5029734;28;20103;-67
2023/04/15 11:32:50;;;;;;;3.05;2.03;;;8.60;99.90;;;;;;5029654;28;20048;-67
2023/04/15 11:35:17;;;;;;;2.20;1.30;;;8.60;99.90;;;;;;5030016;28;20465;-67
2023/04/15 11:37:44;;;;;;;1.80;1.40;;;8.70;99.90;;;;;;5036192;28;20389;-67
2023/04/15 11:40:10;;;;;;;2.67;1.60;;;8.70;99.90;;;;;;5050992;28;20375;-67
2023/04/15 11:42:36;;;;;;;4.55;2.10;;;8.70;99.90;;;;;;5051748;28;20454;-66
2023/04/15 11:45:13;;;;;;;2.47;1.80;;;8.70;99.90;;;;;;5051815;28;20087;-68
2023/04/15 11:47:41;;;;;;;3.80;1.60;;;8.80;99.90;;;;;;5051759;28;20028;-69
2023/04/15 11:50:22;;;;;;;1.90;1.30;;;8.80;99.90;;;;;;5052412;28;20029;-68
2023/04/15 11:52:58;;;;;;;5.70;2.17;;;8.80;99.90;;;;;;5052514;28;20036;-68
2023/04/15 11:55:25;;;;;;;2.95;1.50;;;8.90;99.90;;;;;;5052560;28;20069;-67
2023/04/15 11:58:05;;;;;;;3.97;1.70;;;9.00;99.90;;;;;;5051904;28;20032;-68
2023/04/15 12:00:31;;;;;;;3.20;1.55;;;9.00;99.90;;;;;;5052041;28;20025;-68
2023/04/15 12:03:17;;;;;;;3.60;1.60;;;9.00;99.90;;;;;;5051752;28;20033;-68
2023/04/15 12:06:02;;;;;;;2.65;1.50;;;9.00;99.90;;;;;;5053263;28;20078;-66
2023/04/15 12:09:05;;;;;;;3.72;1.63;;;9.10;99.90;;;;;;5055802;28;20083;-67
2023/04/15 12:11:56;;;;;;;2.20;1.27;;;9.10;99.90;;;;;;5055354;28;20029;-67
2023/04/15 12:14:27;;;;;;;3.38;1.40;;;9.10;99.90;;;;;;5055421;28;20033;-67
2023/04/15 12:17:04;;;;;;;2.03;1.30;;;9.00;99.90;;;;;;5055078;28;20124;-67
2023/04/15 12:19:40;;;;;;;2.13;1.08;;;9.00;99.90;;;;;;5055605;28;20508;-67
2023/04/15 12:22:09;;;;;;;0.80;0.65;;;9.00;99.90;;;;;;5055149;28;20478;-67
2023/04/15 12:24:36;;;;;;;1.15;0.70;;;8.90;99.90;;;;;;5054760;28;20028;-66
2023/04/15 12:27:07;;;;;;;1.58;0.82;;;8.80;99.90;;;;;;5054084;28;20385;-65
2023/04/15 12:29:34;;;;;;;1.15;0.70;;;8.70;99.90;;;;;;5054601;28;20139;-66
2023/04/15 12:32:07;;;;;;;0.93;0.70;;;8.70;99.90;;;;;;5054374;28;20345;-66
2023/04/15 12:34:35;;;;;;;2.45;0.90;;;8.70;99.90;;;;;;5054118;28;20025;-66
2023/04/15 12:37:02;;;;;;;3.20;0.90;;;8.70;99.90;;;;;;5053911;28;20111;-66
2023/04/15 12:39:31;;;;;;;1.15;0.90;;;8.70;99.90;;;;;;5054824;28;20037;-66
2023/04/15 12:41:58;;;;;;;1.13;0.90;;;8.60;99.90;;;;;;5054179;28;20021;-66
2023/04/15 12:44:24;;;;;;;1.92;1.20;;;8.60;99.90;;;;;;5054831;28;20551;-66
2023/04/15 12:46:52;;;;;;;1.25;0.98;;;8.60;99.90;;;;;;5054197;28;20079;-68
2023/04/15 12:49:20;;;;;;;1.05;0.70;;;8.50;99.90;;;;;;5054493;28;20039;-67
2023/04/15 12:51:51;;;;;;;1.02;0.73;;;8.50;99.90;;;;;;5054036;28;20029;-68
2023/04/15 12:54:17;;;;;;;2.30;0.65;;;8.50;99.90;;;;;;5054610;28;20112;-66
2023/04/15 12:56:45;;;;;;;4.45;0.80;;;8.50;99.90;;;;;;5054581;28;20075;-66
2023/04/15 12:59:11;;;;;;;0.82;0.70;;;8.50;99.90;;;;;;5054047;28;20111;-66